sensor_id;sensor_type;location;lat;lon;timestamp;P1;durP1;ratioP1;P2;durP2;ratioP2
43996;SDS011;34318;45.818;15.964;2024-01-06T00:00:50;122.60;;;97.10;;
43996;SDS011;34318;45.818;15.964;2024-01-06T00:03:18;118.55;;;95.07;;
43996;SDS011;34318;45.818;15.964;2024-01-06T00:05:46;118.47;;;95.18;;
43996;SDS011;34318;45.818;15.964;2024-01-06T00:08:14;118.90;;;93.80;;
43996;SDS011;34318;45.818;15.964;2024-01-06T00:10:43;118.35;;;90.15;;
43996;SDS011;34318;45.818;15.964;2024-01-06T00:13:11;111.05;;;90.10;;
43996;SDS011;34318;45.818;15.964;2024-01-06T00:15:40;114.68;;;92.43;;
43996;SDS011;34318;45.818;15.964;2024-01-06T00:18:09;106.93;;;90.00;;
43996;SDS011;34318;45.818;15.964;2024-01-06T00:20:38;113.60;;;89.57;;
43996;SDS011;34318;45.818;15.964;2024-01-06T00:23:06;105.75;;;90.53;;
43996;SDS011;34318;45.818;15.964;2024-01-06T00:25:34;104.65;;;88.25;;
43996;SDS011;34318;45.818;15.964;2024-01-06T00:28:05;109.95;;;88.75;;
43996;SDS011;34318;45.818;15.964;2024-01-06T00:30:34;109.03;;;86.13;;
43996;SDS011;34318;45.818;15.964;2024-01-06T00:33:04;106.97;;;86.78;;
43996;SDS011;34318;45.818;15.964;2024-01-06T00:35:33;104.90;;;83.85;;
43996;SDS011;34318;45.818;15.964;2024-01-06T00:38:02;108.03;;;87.05;;
43996;SDS011;34318;45.818;15.964;2024-01-06T00:40:31;101.80;;;80.60;;
43996;SDS011;34318;45.818;15.964;2024-01-06T00:42:59;106.05;;;84.80;;
43996;SDS011;34318;45.818;15.964;2024-01-06T00:45:27;99.03;;;81.10;;
43996;SDS011;34318;45.818;15.964;2024-01-06T00:47:59;97.40;;;79.82;;
43996;SDS011;34318;45.818;15.964;2024-01-06T00:50:28;96.03;;;81.75;;
43996;SDS011;34318;45.818;15.964;2024-01-06T00:52:58;94.18;;;78.05;;
43996;SDS011;34318;45.818;15.964;2024-01-06T00:55:27;92.90;;;77.63;;
43996;SDS011;34318;45.818;15.964;2024-01-06T00:57:57;92.95;;;78.07;;
43996;SDS011;34318;45.818;15.964;2024-01-06T01:00:25;99.97;;;79.05;;
43996;SDS011;34318;45.818;15.964;2024-01-06T01:02:53;93.13;;;77.20;;
43996;SDS011;34318;45.818;15.964;2024-01-06T01:05:21;97.05;;;81.10;;
43996;SDS011;34318;45.818;15.964;2024-01-06T01:07:49;93.03;;;77.35;;
43996;SDS011;34318;45.818;15.964;2024-01-06T01:10:17;90.63;;;75.25;;
43996;SDS011;34318;45.818;15.964;2024-01-06T01:12:46;88.30;;;74.05;;
43996;SDS011;34318;45.818;15.964;2024-01-06T01:15:14;89.32;;;73.38;;
43996;SDS011;34318;45.818;15.964;2024-01-06T01:17:42;86.00;;;72.40;;
43996;SDS011;34318;45.818;15.964;2024-01-06T01:20:10;90.97;;;72.43;;
43996;SDS011;34318;45.818;15.964;2024-01-06T01:22:39;86.75;;;70.35;;
43996;SDS011;34318;45.818;15.964;2024-01-06T01:25:07;90.93;;;72.30;;
43996;SDS011;34318;45.818;15.964;2024-01-06T01:27:37;91.95;;;74.30;;
43996;SDS011;34318;45.818;15.964;2024-01-06T01:30:05;86.50;;;69.50;;
43996;SDS011;34318;45.818;15.964;2024-01-06T01:32:33;81.78;;;66.93;;
43996;SDS011;34318;45.818;15.964;2024-01-06T01:35:01;79.70;;;68.75;;
43996;SDS011;34318;45.818;15.964;2024-01-06T01:37:30;82.90;;;68.57;;
43996;SDS011;34318;45.818;15.964;2024-01-06T01:39:58;77.07;;;67.32;;
43996;SDS011;34318;45.818;15.964;2024-01-06T01:42:26;82.53;;;69.85;;
43996;SDS011;34318;45.818;15.964;2024-01-06T01:44:53;80.93;;;67.93;;
43996;SDS011;34318;45.818;15.964;2024-01-06T01:47:22;78.20;;;66.72;;
43996;SDS011;34318;45.818;15.964;2024-01-06T01:49:51;76.82;;;65.63;;
43996;SDS011;34318;45.818;15.964;2024-01-06T01:52:19;77.13;;;66.45;;
43996;SDS011;34318;45.818;15.964;2024-01-06T01:54:47;77.65;;;64.75;;
43996;SDS011;34318;45.818;15.964;2024-01-06T01:57:15;80.05;;;69.00;;
43996;SDS011;34318;45.818;15.964;2024-01-06T01:59:42;77.18;;;66.13;;
43996;SDS011;34318;45.818;15.964;2024-01-06T02:02:11;74.57;;;64.10;;
43996;SDS011;34318;45.818;15.964;2024-01-06T02:04:39;79.50;;;64.97;;
43996;SDS011;34318;45.818;15.964;2024-01-06T02:07:08;76.75;;;64.13;;
43996;SDS011;34318;45.818;15.964;2024-01-06T02:09:35;74.30;;;64.13;;
43996;SDS011;34318;45.818;15.964;2024-01-06T02:12:04;75.93;;;65.00;;
43996;SDS011;34318;45.818;15.964;2024-01-06T02:14:32;75.10;;;64.00;;
43996;SDS011;34318;45.818;15.964;2024-01-06T02:17:00;73.53;;;64.60;;
43996;SDS011;34318;45.818;15.964;2024-01-06T02:19:29;72.80;;;63.78;;
43996;SDS011;34318;45.818;15.964;2024-01-06T02:21:57;75.97;;;63.78;;
43996;SDS011;34318;45.818;15.964;2024-01-06T02:24:24;70.80;;;60.67;;
43996;SDS011;34318;45.818;15.964;2024-01-06T02:26:52;69.97;;;61.70;;
43996;SDS011;34318;45.818;15.964;2024-01-06T02:29:21;76.80;;;63.00;;
43996;SDS011;34318;45.818;15.964;2024-01-06T02:31:49;65.88;;;57.58;;
43996;SDS011;34318;45.818;15.964;2024-01-06T02:34:17;71.72;;;59.65;;
43996;SDS011;34318;45.818;15.964;2024-01-06T02:36:45;70.60;;;59.63;;
43996;SDS011;34318;45.818;15.964;2024-01-06T02:39:13;69.07;;;59.42;;
43996;SDS011;34318;45.818;15.964;2024-01-06T02:41:41;64.43;;;55.78;;
43996;SDS011;34318;45.818;15.964;2024-01-06T02:44:13;71.00;;;59.22;;
43996;SDS011;34318;45.818;15.964;2024-01-06T02:46:41;64.50;;;55.67;;
43996;SDS011;34318;45.818;15.964;2024-01-06T02:49:09;62.97;;;53.60;;
43996;SDS011;34318;45.818;15.964;2024-01-06T02:51:37;67.18;;;55.30;;
43996;SDS011;34318;45.818;15.964;2024-01-06T02:54:07;64.30;;;54.53;;
43996;SDS011;34318;45.818;15.964;2024-01-06T02:56:35;64.82;;;55.05;;
43996;SDS011;34318;45.818;15.964;2024-01-06T02:59:02;60.55;;;51.53;;
43996;SDS011;34318;45.818;15.964;2024-01-06T03:01:31;63.85;;;53.35;;
43996;SDS011;34318;45.818;15.964;2024-01-06T03:03:59;59.60;;;52.25;;
43996;SDS011;34318;45.818;15.964;2024-01-06T03:06:27;59.83;;;53.40;;
43996;SDS011;34318;45.818;15.964;2024-01-06T03:08:56;61.55;;;54.72;;
43996;SDS011;34318;45.818;15.964;2024-01-06T03:11:24;62.40;;;52.25;;
43996;SDS011;34318;45.818;15.964;2024-01-06T03:13:52;58.60;;;49.90;;
43996;SDS011;34318;45.818;15.964;2024-01-06T03:16:21;61.15;;;51.05;;
43996;SDS011;34318;45.818;15.964;2024-01-06T03:18:49;59.40;;;51.70;;
43996;SDS011;34318;45.818;15.964;2024-01-06T03:21:17;56.15;;;49.92;;
43996;SDS011;34318;45.818;15.964;2024-01-06T03:23:47;58.15;;;52.05;;
43996;SDS011;34318;45.818;15.964;2024-01-06T03:26:16;57.30;;;51.05;;
43996;SDS011;34318;45.818;15.964;2024-01-06T03:28:45;59.45;;;49.28;;
43996;SDS011;34318;45.818;15.964;2024-01-06T03:31:13;55.22;;;49.28;;
43996;SDS011;34318;45.818;15.964;2024-01-06T03:33:43;53.33;;;47.08;;
43996;SDS011;34318;45.818;15.964;2024-01-06T03:36:12;53.83;;;48.03;;
43996;SDS011;34318;45.818;15.964;2024-01-06T03:38:43;54.25;;;48.38;;
43996;SDS011;34318;45.818;15.964;2024-01-06T03:41:11;53.65;;;47.38;;
43996;SDS011;34318;45.818;15.964;2024-01-06T03:43:39;54.65;;;47.35;;
43996;SDS011;34318;45.818;15.964;2024-01-06T03:46:09;54.92;;;48.38;;
43996;SDS011;34318;45.818;15.964;2024-01-06T03:48:37;58.20;;;48.67;;
43996;SDS011;34318;45.818;15.964;2024-01-06T03:51:05;53.03;;;47.25;;
43996;SDS011;34318;45.818;15.964;2024-01-06T03:53:34;52.92;;;47.17;;
43996;SDS011;34318;45.818;15.964;2024-01-06T03:56:02;52.42;;;46.65;;
43996;SDS011;34318;45.818;15.964;2024-01-06T03:58:30;55.60;;;48.55;;
43996;SDS011;34318;45.818;15.964;2024-01-06T04:00:59;55.83;;;47.72;;
43996;SDS011;34318;45.818;15.964;2024-01-06T04:03:27;53.20;;;47.60;;
43996;SDS011;34318;45.818;15.964;2024-01-06T04:05:56;51.95;;;45.08;;
43996;SDS011;34318;45.818;15.964;2024-01-06T04:08:25;52.80;;;46.03;;
43996;SDS011;34318;45.818;15.964;2024-01-06T04:10:53;53.97;;;47.85;;
43996;SDS011;34318;45.818;15.964;2024-01-06T04:13:21;53.53;;;46.92;;
43996;SDS011;34318;45.818;15.964;2024-01-06T04:15:51;52.33;;;46.83;;
43996;SDS011;34318;45.818;15.964;2024-01-06T04:18:19;48.25;;;43.13;;
43996;SDS011;34318;45.818;15.964;2024-01-06T04:20:47;52.00;;;46.40;;
43996;SDS011;34318;45.818;15.964;2024-01-06T04:23:14;48.67;;;43.45;;
43996;SDS011;34318;45.818;15.964;2024-01-06T04:25:42;50.17;;;44.15;;
43996;SDS011;34318;45.818;15.964;2024-01-06T04:28:11;48.95;;;43.67;;
43996;SDS011;34318;45.818;15.964;2024-01-06T04:30:38;48.35;;;43.28;;
43996;SDS011;34318;45.818;15.964;2024-01-06T04:33:07;47.70;;;42.20;;
43996;SDS011;34318;45.818;15.964;2024-01-06T04:35:36;49.70;;;44.22;;
43996;SDS011;34318;45.818;15.964;2024-01-06T04:38:04;48.33;;;42.92;;
43996;SDS011;34318;45.818;15.964;2024-01-06T04:40:32;44.72;;;40.10;;
43996;SDS011;34318;45.818;15.964;2024-01-06T04:43:00;44.13;;;39.40;;
43996;SDS011;34318;45.818;15.964;2024-01-06T04:45:28;45.83;;;40.60;;
43996;SDS011;34318;45.818;15.964;2024-01-06T04:47:56;45.28;;;40.53;;
43996;SDS011;34318;45.818;15.964;2024-01-06T04:50:24;43.70;;;38.97;;
43996;SDS011;34318;45.818;15.964;2024-01-06T04:52:52;45.78;;;40.90;;
43996;SDS011;34318;45.818;15.964;2024-01-06T04:55:22;40.88;;;36.28;;
43996;SDS011;34318;45.818;15.964;2024-01-06T04:57:51;42.40;;;37.90;;
43996;SDS011;34318;45.818;15.964;2024-01-06T05:00:18;42.40;;;38.00;;
43996;SDS011;34318;45.818;15.964;2024-01-06T05:02:46;43.60;;;38.33;;
43996;SDS011;34318;45.818;15.964;2024-01-06T05:05:14;43.75;;;38.38;;
43996;SDS011;34318;45.818;15.964;2024-01-06T05:07:43;42.92;;;38.35;;
43996;SDS011;34318;45.818;15.964;2024-01-06T05:10:12;44.10;;;38.63;;
43996;SDS011;34318;45.818;15.964;2024-01-06T05:12:40;39.95;;;35.67;;
43996;SDS011;34318;45.818;15.964;2024-01-06T05:15:09;40.83;;;36.63;;
43996;SDS011;34318;45.818;15.964;2024-01-06T05:17:38;42.72;;;38.17;;
43996;SDS011;34318;45.818;15.964;2024-01-06T05:20:06;38.58;;;34.47;;
43996;SDS011;34318;45.818;15.964;2024-01-06T05:22:34;41.78;;;37.33;;
43996;SDS011;34318;45.818;15.964;2024-01-06T05:25:02;43.20;;;38.53;;
43996;SDS011;34318;45.818;15.964;2024-01-06T05:27:31;42.03;;;37.47;;
43996;SDS011;34318;45.818;15.964;2024-01-06T05:29:59;40.63;;;36.22;;
43996;SDS011;34318;45.818;15.964;2024-01-06T05:32:28;38.08;;;33.85;;
43996;SDS011;34318;45.818;15.964;2024-01-06T05:34:56;39.42;;;35.00;;
43996;SDS011;34318;45.818;15.964;2024-01-06T05:37:24;39.95;;;35.42;;
43996;SDS011;34318;45.818;15.964;2024-01-06T05:39:52;37.15;;;33.38;;
43996;SDS011;34318;45.818;15.964;2024-01-06T05:42:21;37.45;;;33.55;;
43996;SDS011;34318;45.818;15.964;2024-01-06T05:44:49;34.75;;;31.08;;
43996;SDS011;34318;45.818;15.964;2024-01-06T05:47:17;36.03;;;32.20;;
43996;SDS011;34318;45.818;15.964;2024-01-06T05:49:44;34.67;;;30.90;;
43996;SDS011;34318;45.818;15.964;2024-01-06T05:52:12;36.65;;;32.78;;
43996;SDS011;34318;45.818;15.964;2024-01-06T05:54:40;37.33;;;33.42;;
43996;SDS011;34318;45.818;15.964;2024-01-06T05:57:09;33.47;;;29.85;;
43996;SDS011;34318;45.818;15.964;2024-01-06T05:59:38;33.58;;;30.23;;
43996;SDS011;34318;45.818;15.964;2024-01-06T06:02:07;36.05;;;32.33;;
43996;SDS011;34318;45.818;15.964;2024-01-06T06:04:34;37.22;;;33.28;;
43996;SDS011;34318;45.818;15.964;2024-01-06T06:07:04;37.70;;;33.63;;
43996;SDS011;34318;45.818;15.964;2024-01-06T06:09:32;35.42;;;31.92;;
43996;SDS011;34318;45.818;15.964;2024-01-06T06:12:01;40.95;;;33.92;;
43996;SDS011;34318;45.818;15.964;2024-01-06T06:14:29;37.50;;;31.13;;
43996;SDS011;34318;45.818;15.964;2024-01-06T06:16:56;37.15;;;33.25;;
43996;SDS011;34318;45.818;15.964;2024-01-06T06:19:24;35.45;;;31.85;;
43996;SDS011;34318;45.818;15.964;2024-01-06T06:21:53;34.50;;;30.98;;
43996;SDS011;34318;45.818;15.964;2024-01-06T06:24:21;33.78;;;30.30;;
43996;SDS011;34318;45.818;15.964;2024-01-06T06:26:49;34.30;;;30.80;;
43996;SDS011;34318;45.818;15.964;2024-01-06T06:29:17;32.95;;;29.45;;
43996;SDS011;34318;45.818;15.964;2024-01-06T06:31:47;32.95;;;29.48;;
43996;SDS011;34318;45.818;15.964;2024-01-06T06:34:16;33.08;;;29.55;;
43996;SDS011;34318;45.818;15.964;2024-01-06T06:36:44;32.97;;;29.42;;
43996;SDS011;34318;45.818;15.964;2024-01-06T06:39:13;30.52;;;27.38;;
43996;SDS011;34318;45.818;15.964;2024-01-06T06:41:41;31.38;;;28.02;;
43996;SDS011;34318;45.818;15.964;2024-01-06T06:44:08;34.03;;;28.35;;
43996;SDS011;34318;45.818;15.964;2024-01-06T06:46:39;31.58;;;28.38;;
43996;SDS011;34318;45.818;15.964;2024-01-06T06:49:11;30.15;;;27.05;;
43996;SDS011;34318;45.818;15.964;2024-01-06T06:51:39;32.03;;;28.70;;
43996;SDS011;34318;45.818;15.964;2024-01-06T06:54:14;35.10;;;29.85;;
43996;SDS011;34318;45.818;15.964;2024-01-06T06:56:45;32.50;;;29.10;;
43996;SDS011;34318;45.818;15.964;2024-01-06T06:59:14;32.20;;;28.80;;
43996;SDS011;34318;45.818;15.964;2024-01-06T07:01:41;32.67;;;29.20;;
43996;SDS011;34318;45.818;15.964;2024-01-06T07:04:10;31.35;;;28.00;;
43996;SDS011;34318;45.818;15.964;2024-01-06T07:06:37;32.33;;;28.88;;
43996;SDS011;34318;45.818;15.964;2024-01-06T07:09:05;30.42;;;27.42;;
43996;SDS011;34318;45.818;15.964;2024-01-06T07:11:33;31.42;;;27.95;;
43996;SDS011;34318;45.818;15.964;2024-01-06T07:14:01;31.40;;;28.15;;
43996;SDS011;34318;45.818;15.964;2024-01-06T07:16:29;31.35;;;28.13;;
43996;SDS011;34318;45.818;15.964;2024-01-06T07:18:58;30.17;;;27.10;;
43996;SDS011;34318;45.818;15.964;2024-01-06T07:21:26;30.83;;;27.63;;
43996;SDS011;34318;45.818;15.964;2024-01-06T07:23:54;30.70;;;27.40;;
43996;SDS011;34318;45.818;15.964;2024-01-06T07:26:22;30.67;;;27.42;;
43996;SDS011;34318;45.818;15.964;2024-01-06T07:28:49;28.70;;;25.77;;
43996;SDS011;34318;45.818;15.964;2024-01-06T07:31:19;29.15;;;26.25;;
43996;SDS011;34318;45.818;15.964;2024-01-06T07:33:49;29.60;;;26.20;;
43996;SDS011;34318;45.818;15.964;2024-01-06T07:36:16;28.33;;;25.30;;
43996;SDS011;34318;45.818;15.964;2024-01-06T07:38:44;28.05;;;25.38;;
43996;SDS011;34318;45.818;15.964;2024-01-06T07:41:12;26.23;;;23.48;;
43996;SDS011;34318;45.818;15.964;2024-01-06T07:43:41;27.73;;;24.98;;
43996;SDS011;34318;45.818;15.964;2024-01-06T07:46:08;27.13;;;24.33;;
43996;SDS011;34318;45.818;15.964;2024-01-06T07:48:36;27.10;;;24.30;;
43996;SDS011;34318;45.818;15.964;2024-01-06T07:51:05;30.67;;;23.10;;
43996;SDS011;34318;45.818;15.964;2024-01-06T07:53:32;26.80;;;24.10;;
43996;SDS011;34318;45.818;15.964;2024-01-06T07:56:03;26.88;;;24.13;;
43996;SDS011;34318;45.818;15.964;2024-01-06T07:58:31;25.58;;;23.08;;
43996;SDS011;34318;45.818;15.964;2024-01-06T08:00:59;25.95;;;23.15;;
43996;SDS011;34318;45.818;15.964;2024-01-06T08:03:28;27.90;;;24.38;;
43996;SDS011;34318;45.818;15.964;2024-01-06T08:05:56;25.85;;;23.20;;
43996;SDS011;34318;45.818;15.964;2024-01-06T08:08:27;26.75;;;23.85;;
43996;SDS011;34318;45.818;15.964;2024-01-06T08:10:54;25.25;;;22.75;;
43996;SDS011;34318;45.818;15.964;2024-01-06T08:13:22;24.95;;;22.35;;
43996;SDS011;34318;45.818;15.964;2024-01-06T08:15:50;25.48;;;22.90;;
43996;SDS011;34318;45.818;15.964;2024-01-06T08:18:18;24.00;;;21.40;;
43996;SDS011;34318;45.818;15.964;2024-01-06T08:20:47;25.08;;;22.48;;
43996;SDS011;34318;45.818;15.964;2024-01-06T08:23:15;25.08;;;22.48;;
43996;SDS011;34318;45.818;15.964;2024-01-06T08:25:45;24.63;;;22.17;;
43996;SDS011;34318;45.818;15.964;2024-01-06T08:28:15;24.23;;;21.92;;
43996;SDS011;34318;45.818;15.964;2024-01-06T08:30:44;23.42;;;21.00;;
43996;SDS011;34318;45.818;15.964;2024-01-06T08:33:13;24.92;;;22.45;;
43996;SDS011;34318;45.818;15.964;2024-01-06T08:35:41;23.60;;;21.20;;
43996;SDS011;34318;45.818;15.964;2024-01-06T08:38:09;23.98;;;21.52;;
43996;SDS011;34318;45.818;15.964;2024-01-06T08:40:37;24.98;;;21.75;;
43996;SDS011;34318;45.818;15.964;2024-01-06T08:43:05;23.70;;;21.20;;
43996;SDS011;34318;45.818;15.964;2024-01-06T08:45:33;24.25;;;21.75;;
43996;SDS011;34318;45.818;15.964;2024-01-06T08:48:01;24.00;;;20.25;;
43996;SDS011;34318;45.818;15.964;2024-01-06T08:50:29;24.25;;;20.48;;
43996;SDS011;34318;45.818;15.964;2024-01-06T08:52:57;24.83;;;22.30;;
43996;SDS011;34318;45.818;15.964;2024-01-06T08:55:26;25.63;;;23.10;;
43996;SDS011;34318;45.818;15.964;2024-01-06T08:57:54;29.63;;;26.40;;
43996;SDS011;34318;45.818;15.964;2024-01-06T09:00:22;30.20;;;27.17;;
43996;SDS011;34318;45.818;15.964;2024-01-06T09:02:50;30.73;;;27.83;;
43996;SDS011;34318;45.818;15.964;2024-01-06T09:05:17;30.45;;;27.23;;
43996;SDS011;34318;45.818;15.964;2024-01-06T09:07:45;31.05;;;27.83;;
43996;SDS011;34318;45.818;15.964;2024-01-06T09:10:21;30.00;;;26.80;;
43996;SDS011;34318;45.818;15.964;2024-01-06T09:12:48;31.25;;;28.15;;
43996;SDS011;34318;45.818;15.964;2024-01-06T09:15:16;31.95;;;28.63;;
43996;SDS011;34318;45.818;15.964;2024-01-06T09:17:45;32.50;;;29.20;;
43996;SDS011;34318;45.818;15.964;2024-01-06T09:20:14;34.85;;;31.17;;
43996;SDS011;34318;45.818;15.964;2024-01-06T09:22:42;31.60;;;28.50;;
43996;SDS011;34318;45.818;15.964;2024-01-06T09:25:11;34.53;;;31.13;;
43996;SDS011;34318;45.818;15.964;2024-01-06T09:27:39;33.35;;;29.95;;
43996;SDS011;34318;45.818;15.964;2024-01-06T09:30:08;37.80;;;33.80;;
43996;SDS011;34318;45.818;15.964;2024-01-06T09:32:35;36.28;;;32.75;;
43996;SDS011;34318;45.818;15.964;2024-01-06T09:35:04;38.55;;;34.60;;
43996;SDS011;34318;45.818;15.964;2024-01-06T09:37:32;39.30;;;35.58;;
43996;SDS011;34318;45.818;15.964;2024-01-06T09:40:00;38.95;;;35.28;;
43996;SDS011;34318;45.818;15.964;2024-01-06T09:42:28;40.97;;;36.70;;
43996;SDS011;34318;45.818;15.964;2024-01-06T09:44:56;40.50;;;36.58;;
43996;SDS011;34318;45.818;15.964;2024-01-06T09:47:24;43.15;;;38.92;;
43996;SDS011;34318;45.818;15.964;2024-01-06T09:49:54;47.90;;;43.00;;
43996;SDS011;34318;45.818;15.964;2024-01-06T09:52:23;47.03;;;42.55;;
43996;SDS011;34318;45.818;15.964;2024-01-06T09:54:55;47.13;;;42.35;;
43996;SDS011;34318;45.818;15.964;2024-01-06T09:57:24;48.08;;;43.38;;
43996;SDS011;34318;45.818;15.964;2024-01-06T09:59:52;50.42;;;45.47;;
43996;SDS011;34318;45.818;15.964;2024-01-06T10:02:20;50.70;;;45.83;;
43996;SDS011;34318;45.818;15.964;2024-01-06T10:04:50;52.38;;;47.17;;
43996;SDS011;34318;45.818;15.964;2024-01-06T10:07:18;52.95;;;47.67;;
43996;SDS011;34318;45.818;15.964;2024-01-06T10:09:46;55.90;;;50.05;;
43996;SDS011;34318;45.818;15.964;2024-01-06T10:12:15;50.78;;;45.97;;
43996;SDS011;34318;45.818;15.964;2024-01-06T10:14:42;54.60;;;49.35;;
43996;SDS011;34318;45.818;15.964;2024-01-06T10:17:13;54.25;;;48.90;;
43996;SDS011;34318;45.818;15.964;2024-01-06T10:19:43;54.78;;;49.25;;
43996;SDS011;34318;45.818;15.964;2024-01-06T10:22:12;53.40;;;47.92;;
43996;SDS011;34318;45.818;15.964;2024-01-06T10:24:41;58.97;;;53.08;;
43996;SDS011;34318;45.818;15.964;2024-01-06T10:27:09;59.80;;;53.55;;
43996;SDS011;34318;45.818;15.964;2024-01-06T10:29:38;55.78;;;50.20;;
43996;SDS011;34318;45.818;15.964;2024-01-06T10:32:05;61.13;;;55.03;;
43996;SDS011;34318;45.818;15.964;2024-01-06T10:34:33;63.03;;;56.42;;
43996;SDS011;34318;45.818;15.964;2024-01-06T10:37:03;64.13;;;57.67;;
43996;SDS011;34318;45.818;15.964;2024-01-06T10:39:32;65.35;;;59.00;;
43996;SDS011;34318;45.818;15.964;2024-01-06T10:42:03;68.22;;;60.97;;
43996;SDS011;34318;45.818;15.964;2024-01-06T10:44:32;71.07;;;63.80;;
43996;SDS011;34318;45.818;15.964;2024-01-06T10:46:59;65.90;;;59.28;;
43996;SDS011;34318;45.818;15.964;2024-01-06T10:49:28;67.75;;;60.75;;
43996;SDS011;34318;45.818;15.964;2024-01-06T10:51:57;69.63;;;62.67;;
43996;SDS011;34318;45.818;15.964;2024-01-06T10:54:25;70.38;;;63.55;;
43996;SDS011;34318;45.818;15.964;2024-01-06T10:56:55;72.38;;;65.00;;
43996;SDS011;34318;45.818;15.964;2024-01-06T10:59:24;71.97;;;64.78;;
43996;SDS011;34318;45.818;15.964;2024-01-06T11:01:53;71.20;;;64.20;;
43996;SDS011;34318;45.818;15.964;2024-01-06T11:04:22;72.30;;;64.90;;
43996;SDS011;34318;45.818;15.964;2024-01-06T11:06:50;74.40;;;66.68;;
43996;SDS011;34318;45.818;15.964;2024-01-06T11:09:26;72.53;;;64.97;;
43996;SDS011;34318;45.818;15.964;2024-01-06T11:11:59;68.50;;;61.75;;
43996;SDS011;34318;45.818;15.964;2024-01-06T11:14:27;74.80;;;67.47;;
43996;SDS011;34318;45.818;15.964;2024-01-06T11:16:55;78.78;;;70.55;;
43996;SDS011;34318;45.818;15.964;2024-01-06T11:24:47;75.70;;;67.97;;
43996;SDS011;34318;45.818;15.964;2024-01-06T11:27:23;78.10;;;69.95;;
43996;SDS011;34318;45.818;15.964;2024-01-06T11:29:56;74.38;;;67.15;;
43996;SDS011;34318;45.818;15.964;2024-01-06T11:32:25;80.40;;;72.20;;
43996;SDS011;34318;45.818;15.964;2024-01-06T11:34:54;79.18;;;71.55;;
43996;SDS011;34318;45.818;15.964;2024-01-06T11:45:18;87.28;;;78.38;;
43996;SDS011;34318;45.818;15.964;2024-01-06T11:47:47;88.60;;;79.50;;
43996;SDS011;34318;45.818;15.964;2024-01-06T11:50:16;86.70;;;77.43;;
43996;SDS011;34318;45.818;15.964;2024-01-06T11:52:44;91.03;;;81.25;;
43996;SDS011;34318;45.818;15.964;2024-01-06T11:55:12;91.43;;;81.95;;
43996;SDS011;34318;45.818;15.964;2024-01-06T11:57:41;85.63;;;77.13;;
43996;SDS011;34318;45.818;15.964;2024-01-06T12:00:09;86.28;;;77.15;;
43996;SDS011;34318;45.818;15.964;2024-01-06T12:02:37;83.38;;;74.75;;
43996;SDS011;34318;45.818;15.964;2024-01-06T12:05:05;83.80;;;75.30;;
43996;SDS011;34318;45.818;15.964;2024-01-06T12:07:34;83.25;;;74.90;;
43996;SDS011;34318;45.818;15.964;2024-01-06T12:10:02;79.70;;;71.57;;
43996;SDS011;34318;45.818;15.964;2024-01-06T12:12:30;81.20;;;73.22;;
43996;SDS011;34318;45.818;15.964;2024-01-06T12:14:58;79.88;;;71.68;;
43996;SDS011;34318;45.818;15.964;2024-01-06T12:17:29;77.70;;;69.85;;
43996;SDS011;34318;45.818;15.964;2024-01-06T12:19:58;79.28;;;71.18;;
43996;SDS011;34318;45.818;15.964;2024-01-06T12:22:26;80.43;;;71.90;;
43996;SDS011;34318;45.818;15.964;2024-01-06T12:24:54;78.32;;;70.38;;
43996;SDS011;34318;45.818;15.964;2024-01-06T12:27:24;78.07;;;69.70;;
43996;SDS011;34318;45.818;15.964;2024-01-06T12:29:55;75.95;;;68.07;;
43996;SDS011;34318;45.818;15.964;2024-01-06T12:32:23;77.32;;;69.38;;
43996;SDS011;34318;45.818;15.964;2024-01-06T12:34:51;76.68;;;68.65;;
43996;SDS011;34318;45.818;15.964;2024-01-06T12:37:19;74.30;;;66.88;;
43996;SDS011;34318;45.818;15.964;2024-01-06T12:39:47;75.57;;;67.68;;
43996;SDS011;34318;45.818;15.964;2024-01-06T12:42:15;79.53;;;71.28;;
43996;SDS011;34318;45.818;15.964;2024-01-06T12:44:43;83.30;;;74.90;;
43996;SDS011;34318;45.818;15.964;2024-01-06T12:47:11;83.00;;;74.75;;
43996;SDS011;34318;45.818;15.964;2024-01-06T12:49:40;82.43;;;73.72;;
43996;SDS011;34318;45.818;15.964;2024-01-06T12:52:07;81.00;;;72.68;;
43996;SDS011;34318;45.818;15.964;2024-01-06T12:54:35;82.93;;;74.70;;
43996;SDS011;34318;45.818;15.964;2024-01-06T12:57:04;85.80;;;77.07;;
43996;SDS011;34318;45.818;15.964;2024-01-06T12:59:33;85.70;;;76.40;;
43996;SDS011;34318;45.818;15.964;2024-01-06T13:02:00;88.97;;;79.65;;
43996;SDS011;34318;45.818;15.964;2024-01-06T13:04:28;115.65;;;95.15;;
43996;SDS011;34318;45.818;15.964;2024-01-06T13:06:56;125.72;;;101.20;;
43996;SDS011;34318;45.818;15.964;2024-01-06T13:09:28;118.35;;;96.28;;
43996;SDS011;34318;45.818;15.964;2024-01-06T13:11:55;113.70;;;96.65;;
43996;SDS011;34318;45.818;15.964;2024-01-06T13:14:27;106.15;;;94.57;;
43996;SDS011;34318;45.818;15.964;2024-01-06T13:16:58;100.82;;;89.88;;
43996;SDS011;34318;45.818;15.964;2024-01-06T13:19:26;104.80;;;92.63;;
43996;SDS011;34318;45.818;15.964;2024-01-06T13:21:53;103.00;;;91.90;;
43996;SDS011;34318;45.818;15.964;2024-01-06T13:24:21;102.32;;;91.55;;
43996;SDS011;34318;45.818;15.964;2024-01-06T13:26:49;103.38;;;92.35;;
43996;SDS011;34318;45.818;15.964;2024-01-06T13:29:18;97.18;;;86.85;;
43996;SDS011;34318;45.818;15.964;2024-01-06T13:31:46;94.50;;;84.47;;
43996;SDS011;34318;45.818;15.964;2024-01-06T13:34:14;93.07;;;82.53;;
43996;SDS011;34318;45.818;15.964;2024-01-06T13:36:42;91.45;;;82.07;;
43996;SDS011;34318;45.818;15.964;2024-01-06T13:39:09;88.55;;;78.93;;
43996;SDS011;34318;45.818;15.964;2024-01-06T13:41:47;84.53;;;75.78;;
43996;SDS011;34318;45.818;15.964;2024-01-06T13:44:15;83.07;;;74.32;;
43996;SDS011;34318;45.818;15.964;2024-01-06T13:46:43;81.25;;;72.18;;
43996;SDS011;34318;45.818;15.964;2024-01-06T13:49:11;78.63;;;70.05;;
43996;SDS011;34318;45.818;15.964;2024-01-06T13:51:40;77.53;;;69.10;;
43996;SDS011;34318;45.818;15.964;2024-01-06T13:54:07;76.55;;;68.45;;
43996;SDS011;34318;45.818;15.964;2024-01-06T13:56:37;79.63;;;71.18;;
43996;SDS011;34318;45.818;15.964;2024-01-06T13:59:06;77.97;;;69.78;;
43996;SDS011;34318;45.818;15.964;2024-01-06T14:01:34;76.85;;;68.90;;
43996;SDS011;34318;45.818;15.964;2024-01-06T14:04:05;73.85;;;66.55;;
43996;SDS011;34318;45.818;15.964;2024-01-06T14:06:33;78.68;;;70.57;;
43996;SDS011;34318;45.818;15.964;2024-01-06T14:09:01;80.20;;;71.82;;
43996;SDS011;34318;45.818;15.964;2024-01-06T14:11:28;76.35;;;68.72;;
43996;SDS011;34318;45.818;15.964;2024-01-06T14:13:57;77.63;;;69.38;;
43996;SDS011;34318;45.818;15.964;2024-01-06T14:16:25;78.90;;;70.82;;
43996;SDS011;34318;45.818;15.964;2024-01-06T14:18:53;78.10;;;70.35;;
43996;SDS011;34318;45.818;15.964;2024-01-06T14:21:22;78.78;;;70.88;;
43996;SDS011;34318;45.818;15.964;2024-01-06T14:23:49;94.68;;;84.82;;
43996;SDS011;34318;45.818;15.964;2024-01-06T14:26:17;130.27;;;117.90;;
43996;SDS011;34318;45.818;15.964;2024-01-06T14:28:47;134.65;;;121.53;;